• Join FlightAware (Why Join?)
  • Login
  • US Flag 
07:24AM EDT


 

Airport Tracker/Info


-or-


 

Live Flight TrackerFlight Track Log ✈ N969BD ✈ 23-May-2013 ✈ KGLE - KNEW

Flight Track Log - Related Links

Times and Time Zones

All times are in EDT time to prevent confusion due to time zone crossing. See the N969BD flight status page for this flight to view local times or setup timezone preferences in your user account.

Time Position Orientation Groundspeed Altitude Reporting Facility
EDT Latitude Longitude Course Direction KTS MPH feet Rate Location/Type
04:20PM 33.6158 -97.1017 112° Southeast 171 197 2,000  Level Fort Worth Center
04:22PM 33.5842 -97.0394 121° Southeast 118 136 2,900 420 Climbing Fort Worth Center
04:23PM 33.5653 -97.0022 121° Southeast 112 129 3,400 420 Climbing Fort Worth Center
04:24PM 33.5528 -96.9722 117° Southeast 112 129 3,800 360 Climbing Fort Worth Center
04:25PM 33.5136 -96.8908 112° Southeast  Level FlightAware Approximate
04:25PM 33.5381 -96.9300 113° Southeast 119 137 4,200  Level Fort Worth Center
04:26PM 33.5336 -96.8925 98° East 119 137 4,400 180 Climbing Fort Worth Center
04:27PM 33.5314 -96.8503 94° East 126 145 4,600 300 Climbing Fort Worth Center
04:28PM 33.5311 -96.8006 90° East 131 151 5,100 2,160 Climbing Fort Worth Center
04:29PM 33.5414 -96.7481 77° East 137 158 9,000 300 Climbing Fort Worth Center
04:30PM 33.5517 -96.7081 73° East 137 158 5,800 -1,440 Descending Fort Worth Center
04:31PM 33.5617 -96.6581 76° East 142 163 6,200 360 Climbing Fort Worth Center
04:32PM 33.5697 -96.6181 76° East 142 163 6,600 360 Climbing Fort Worth Center
04:33PM 33.5758 -96.5683 82° East 142 163 7,000 180 Climbing Fort Worth Center
04:34PM 33.5817 -96.5158 82° East 148 170 7,000  Level Fort Worth Center
04:35PM 33.5875 -96.4658 82° East 159 183 7,000  Level Fort Worth Center
04:36PM 33.5808 -96.4061 98° East 158 182 7,000  Level Fort Worth Center
04:37PM 33.5575 -96.3617 122° Southeast 164 189 7,000  Level Fort Worth Center
04:38PM 33.5300 -96.3094 122° Southeast 169 194 7,000  Level Fort Worth Center
04:39PM 33.5067 -96.2675 124° Southeast 175 201 7,000  Level Fort Worth Center
04:40PM 33.4811 -96.2131 119° Southeast 170 196 7,000  Level Fort Worth Center
04:41PM 33.4597 -96.1711 121° Southeast 170 196 7,000  Level Fort Worth Center
04:42PM 33.4319 -96.1167 121° Southeast 170 196 7,000  Level Fort Worth Center
04:43PM 33.4086 -96.0722 122° Southeast 165 190 7,000  Level Fort Worth Center
04:44PM 33.3808 -96.0203 123° Southeast 165 190 7,000  Level Fort Worth Center
04:45PM 33.3492 -95.9911 142° Southeast 170 196 7,100  Climbing Fort Worth Center
04:46PM 33.3111 -95.9444 134° Southeast 170 196 7,000 -60 Descending Fort Worth Center
04:47PM 33.2836 -95.9050 130° Southeast 170 196 7,000  Level Fort Worth Center
04:48PM 33.2517 -95.8558 128° Southeast 170 196 7,000  Level Fort Worth Center
04:49PM 33.2303 -95.8117 120° Southeast 170 196 7,000  Level Fort Worth Center
04:50PM 33.2044 -95.7575 120° Southeast 170 196 7,000  Level Fort Worth Center
04:51PM 33.1831 -95.7131 120° Southeast 170 196 7,000  Level Fort Worth Center
04:52PM 33.1617 -95.6739 123° Southeast 165 190 7,000  Level Fort Worth Center
04:53PM 33.1294 -95.6200 126° Southeast 165 190 7,000  Level Fort Worth Center
04:54PM 33.0975 -95.5686 127° Southeast 179 206 7,000  Level Fort Worth Center
04:55PM 33.0697 -95.5244 127° Southeast 179 206 7,000  Level Fort Worth Center
04:56PM 33.0461 -95.4778 121° Southeast 172 198 7,000  Level Fort Worth Center
04:57PM 33.0181 -95.4289 124° Southeast 172 198 7,000  Level Fort Worth Center
04:58PM 32.9922 -95.3800 122° Southeast 172 198 7,000  Level Fort Worth Center
04:59PM 32.9686 -95.3311 120° Southeast 158 182 7,000  Level Fort Worth Center
05:00PM 32.9386 -95.2847 128° Southeast 180 207 7,000  Level Fort Worth Center
05:01PM 32.9106 -95.2383 126° Southeast 180 207 7,000  Level Fort Worth Center
05:02PM 32.8828 -95.1919 125° Southeast 174 200 7,000  Level Fort Worth Center
05:03PM 32.8567 -95.1431 122° Southeast 174 200 7,000  Level Fort Worth Center
05:04PM 32.8267 -95.0944 126° Southeast 174 200 7,000  Level Fort Worth Center
05:05PM 32.7986 -95.0458 124° Southeast 174 200 7,000  Level Fort Worth Center
05:06PM 32.7725 -94.9969 122° Southeast 174 200 7,000  Level Fort Worth Center
05:07PM 32.7447 -94.9508 126° Southeast 174 200 7,000  Level Fort Worth Center
05:08PM 32.7167 -94.9047 126° Southeast 174 200 7,000  Level Fort Worth Center
05:09PM 32.6883 -94.8561 125° Southeast 180 207 7,000  Level Fort Worth Center
05:10PM 32.6581 -94.8028 124° Southeast 180 207 7,000  Level Fort Worth Center
05:11PM 32.6342 -94.7567 122° Southeast 175 201 7,000 -60 Level Fort Worth Center
05:13PM 32.5806 -94.6561 122° Southeast 178 205 6,900 -60 Descending Houston Center
05:14PM 32.5522 -94.6078 125° Southeast 178 205 6,900  Level Houston Center
05:15PM 32.5236 -94.5614 126° Southeast 177 204 6,900  Level Houston Center
05:16PM 32.4944 -94.5147 127° Southeast 177 204 6,900 60 Level Houston Center
05:16PM 32.4803 -94.5000 139° Southeast 175 201 7,000 60 Climbing Fort Worth Center
05:17PM 32.4522 -94.4567 127° Southeast 176 203 7,000  Level Fort Worth Center
05:18PM 32.4217 -94.4061 126° Southeast 179 206 7,000  Level Fort Worth Center
05:19PM 32.3936 -94.3603 126° Southeast 174 200 7,000  Level Fort Worth Center
05:20PM 32.3653 -94.3144 126° Southeast 172 198 7,000  Level Fort Worth Center
05:21PM 32.3369 -94.2711 128° Southeast 174 200 7,000  Level Fort Worth Center
05:22PM 32.3044 -94.2231 129° Southeast 176 203 7,000  Level Fort Worth Center
05:23PM 32.2761 -94.1725 124° Southeast 178 205 7,000  Level Fort Worth Center
05:24PM 32.2456 -94.1244 127° Southeast 179 206 7,000  Level Fort Worth Center
05:25PM 32.2192 -94.0764 123° Southeast 180 207 7,000  Level Fort Worth Center
05:26PM 32.1908 -94.0283 125° Southeast 179 206 7,000  Level Fort Worth Center
05:27PM 32.1625 -93.9778 123° Southeast 180 207 7,000  Level Fort Worth Center
05:28PM 32.1339 -93.9272 124° Southeast 177 204 7,000  Level Fort Worth Center
05:29PM 32.1033 -93.8819 129° Southeast 176 203 7,000  Level Fort Worth Center
05:30PM 32.0794 -93.8350 121° Southeast 179 206 7,000  Level Houston Center
05:31PM 32.0483 -93.7847 126° Southeast 179 206 7,000  Level Houston Center
05:32PM 32.0192 -93.7350 125° Southeast 183 211 7,000  Level Houston Center
05:33PM 31.9844 -93.6786 126° Southeast 181 208 7,000  Level Houston Center
05:34PM 31.9561 -93.6300 124° Southeast 180 207 7,000  Level Houston Center
05:35PM 31.9267 -93.5825 126° Southeast 180 207 7,000  Level Houston Center
05:36PM 31.8981 -93.5344 125° Southeast 180 207 7,000  Level Houston Center
05:37PM 31.8692 -93.4856 125° Southeast 180 207 7,000  Level Houston Center
05:38PM 31.8353 -93.4417 132° Southeast 177 204 7,000  Level Houston Center
05:39PM 31.8017 -93.4028 135° Southeast 174 200 7,000  Level Houston Center
05:40PM 31.7656 -93.3617 136° Southeast 173 199 7,000  Level Houston Center
05:41PM 31.7364 -93.3275 135° Southeast 174 200 7,000  Level Houston Center
05:41PM 31.7275 -93.3144 129° Southeast 172 198 7,000  Level Houston Center
05:42PM 31.6958 -93.2817 139° Southeast 174 200 7,000  Level Houston Center
05:43PM 31.6600 -93.2406 136° Southeast 176 203 7,000  Level Houston Center
05:44PM 31.6567 -93.2353 127° Southeast 176 203 7,000  Level Houston Center
05:44PM 31.6283 -93.2042 137° Southeast 175 201 7,000  Level Houston Center
05:45PM 31.6225 -93.1956 129° Southeast 174 200 7,000  Level Houston Center
05:45PM 31.5925 -93.1631 137° Southeast 173 199 7,000  Level Houston Center
05:46PM 31.5819 -93.1475 129° Southeast 172 198 7,000  Level Houston Center
05:46PM 31.5606 -93.1242 137° Southeast 174 200 7,000  Level Houston Center
05:47PM 31.5472 -93.1067 132° Southeast 177 204 7,000  Level Houston Center
05:47PM 31.5244 -93.0808 136° Southeast 176 203 7,000  Level Houston Center
05:48PM 31.5122 -93.0661 134° Southeast 178 205 7,000  Level Houston Center
05:48PM 31.4906 -93.0397 134° Southeast 179 206 7,000  Level Houston Center
05:49PM 31.4783 -93.0236 132° Southeast 181 208 7,000  Level Houston Center
05:49PM 31.4544 -92.9964 136° Southeast 180 207 7,000  Level Houston Center
05:50PM 31.4433 -92.9844 137° Southeast 175 201 7,000  Level Houston Center
05:50PM 31.4186 -92.9628 143° Southeast 173 199 7,000  Level Houston Center
05:51PM 31.3975 -92.9422 140° Southeast 174 200 7,000  Level Houston Center
05:51PM 31.3789 -92.9272 145° Southeast 171 197 7,000  Level Houston Center
05:52PM 31.3614 -92.9061 134° Southeast 171 197 7,000  Level Houston Center
05:52PM 31.3450 -92.8886 138° Southeast 175 201 7,000  Level Houston Center
05:53PM 31.3253 -92.8672 137° Southeast 177 204 7,000  Level Houston Center
05:53PM 31.3086 -92.8456 132° Southeast 177 204 7,000  Level Houston Center
05:54PM 31.2928 -92.8250 132° Southeast 176 203 7,000  Level Houston Center
05:54PM 31.2769 -92.8069 136° Southeast 174 200 7,000  Level Houston Center
05:55PM 31.2589 -92.7842 133° Southeast 175 201 7,000  Level Houston Center
05:55PM 31.2406 -92.7639 137° Southeast 177 204 7,000  Level Houston Center
05:56PM 31.2181 -92.7342 132° Southeast 178 205 7,000  Level Houston Center
05:57PM 31.1994 -92.7114 134° Southeast 181 208 7,000  Level Houston Center
05:57PM 31.1825 -92.6933 138° Southeast 181 208 7,000  Level Houston Center
05:58PM 31.1611 -92.6708 138° Southeast 182 209 7,000  Level Houston Center
05:58PM 31.1453 -92.6536 137° Southeast 183 211 7,000 60 Level Houston Center
05:59PM 31.1231 -92.6328 141° Southeast 182 209 7,100 60 Climbing Houston Center
05:59PM 31.1075 -92.6136 133° Southeast 185 213 7,100  Level Houston Center
06:00PM 31.0806 -92.5928 146° Southeast 181 208 7,100  Level Houston Center
06:00PM 31.0622 -92.5836 157° South 188 216 7,100 180 Level Houston Center
06:01PM 31.0369 -92.5653 148° Southeast 186 214 7,300 180 Climbing Houston Center
06:01PM 31.0128 -92.5439 143° Southeast 181 208 7,300  Level Houston Center
06:02PM 30.9931 -92.5350 159° South 182 209 7,300  Level Houston Center
06:02PM 30.9656 -92.5283 168° South 181 208 7,300  Level Houston Center
06:03PM 30.9300 -92.4903 137° Southeast 180 207 7,300  Level Houston Center
06:04PM 30.9206 -92.4336 101° East 184 212 7,300  Level Houston Center
06:05PM 30.9208 -92.3750 90° East 183 211 7,300 -120 Level Houston Center
06:06PM 30.9183 -92.3042 92° East 182 209 7,100 -420 Descending Houston Center
06:07PM 30.9114 -92.2461 98° East 182 209 6,500 -420 Descending Houston Center
06:08PM 30.9011 -92.1881 102° East 183 211 6,300 -480 Descending Houston Center
06:09PM 30.8761 -92.1392 121° Southeast 176 203 5,600 -780 Descending Houston Center
06:10PM 30.8508 -92.0922 122° Southeast 174 200 4,700 -900 Descending Houston Center
06:12PM 30.8283 -92.0428 118° Southeast 173 199 3,800 -780 Descending Houston Center
06:13PM 30.8047 -91.9842 115° Southeast 169 194 3,100 -300 Descending Houston Center
06:14PM 30.7903 -91.9381 110° East 161 185 3,200  Climbing Houston Center
06:15PM 30.7733 -91.8928 114° Southeast 155 178 3,100  Descending Houston Center
06:16PM 30.7594 -91.8383 107° East 164 189 3,200  Climbing Houston Center
06:17PM 30.7639 -91.7847 84° East 165 190 3,100  Descending Houston Center
06:18PM 30.7728 -91.7164 81° East 172 198 3,200  Climbing Houston Center
06:19PM 30.7767 -91.6625 85° East 172 198 3,200  Level Houston Center
06:20PM 30.7736 -91.6067 94° East 173 199 3,200  Level Houston Center
06:21PM 30.7678 -91.5497 97° East 176 203 3,200  Level Houston Center
06:22PM 30.7475 -91.4961 114° Southeast 179 206 3,200 -60 Level Houston Center
06:23PM 30.7181 -91.4467 125° Southeast 183 211 3,100 -60 Descending Houston Center
06:24PM 30.6864 -91.3922 124° Southeast 181 208 3,100  Level Houston Center
06:26PM 30.6530 -91.3208 119° Southeast  Level FlightAware Approximate
06:29PM 30.5447 -91.1897 119° Southeast 189 217 3,100  Level Houston Center
06:30PM 30.5231 -91.1542 125° Southeast 171 197 3,100  Level Houston Center
06:31PM 30.4931 -91.0989 122° Southeast 166 191 3,100  Level Houston Center
06:32PM 30.4703 -91.0508 119° Southeast 168 193 3,100  Level Houston Center
06:33PM 30.5031 -91.0025 119° Southeast  Level FlightAware Approximate
06:33PM 30.4458 -91.0036 121° Southeast 169 194 3,200  Level Houston Center
06:34PM 30.4816 -90.9571 119° Southeast  Level FlightAware Approximate
06:34PM 30.4208 -90.9561 121° Southeast 173 199 3,100  Level Houston Center
06:35PM 30.3975 -90.9117 121° Southeast 170 196 3,100  Level Houston Center
06:35PM 30.3867 -90.8906 121° Southeast 169 194 3,100  Level Houston Center
06:36PM 30.3669 -90.8503 120° Southeast 167 192 3,100  Level Houston Center
06:37PM 30.3425 -90.8003 120° Southeast 170 196 3,100  Level Houston Center
06:38PM 30.3231 -90.7594 119° Southeast 169 194 3,100  Level Houston Center
06:39PM 30.2997 -90.7119 120° Southeast 170 196 3,100  Level Houston Center
06:40PM 30.2778 -90.6681 120° Southeast 165 190 3,100  Level Houston Center
06:41PM 30.2561 -90.6231 119° Southeast 162 186 3,100  Level Houston Center
06:42PM 30.2317 -90.5661 116° Southeast 154 177 3,100  Level Houston Center
06:43PM 30.2178 -90.5161 108° East 162 186 3,100  Level Houston Center
06:44PM 30.2019 -90.4686 111° Southeast 162 186 3,100  Level Houston Center
06:45PM 30.1919 -90.4228 104° East 161 185 3,100 -60 Level Houston Center
06:46PM 30.1639 -90.3811 128° Southeast 159 183 3,000 -420 Descending Houston Center
06:48PM 30.1358 -90.3450 132° Southeast 161 185 2,300 -480 Descending Houston Center
06:49PM 30.1006 -90.3014 133° Southeast 158 182 2,000 -120 Descending Houston Center
06:50PM 30.0736 -90.2664 132° Southeast 153 176 2,100  Climbing Houston Center
06:51PM 30.0419 -90.2200 128° Southeast 147 169 2,100  Level Houston Center
06:52PM 30.0272 -90.1897 119° Southeast 148 170 2,100 -180 Level Houston Center
06:53PM 30.0253 -90.1356 92° East 164 189 1,800 -120 Descending Houston Center
06:54PM 30.0119 -90.0797 105° East 158 182 1,900 -240 Climbing Houston Center
06:55PM 30.0050 -90.0408 102° East 147 169 1,400 -360 Descending Houston Center
06:56PM 30.0344 -90.0044 47° Northeast 149 171 1,200 -240 Descending Houston Center
06:58PM 30.0424 -90.0283 291° West  Level Estimated